ADDS METAR Data INFO
IDs: Format: Raw Decoded Include TAF

Data at: 1542 UTC 12 Dec 2017

KGWW 121530Z AUTO 22010G16KT 10SM CLR 10/04 A2970 RMK AO2 T00980039
KGWW 121510Z AUTO 22008KT 10SM CLR 08/04 A2971 RMK AO2 T00830035
KGWW 121450Z AUTO 23010G17KT 10SM CLR 08/03 A2972 RMK AO2 T00810033
KGWW 121430Z AUTO 22008KT 10SM CLR 08/04 A2972 RMK AO2 T00820037
KGWW 121410Z AUTO 22010G14KT 10SM CLR 08/04 A2973 RMK AO2 T00760038
KGWW 121350Z AUTO 21011G16KT 10SM CLR 07/03 A2974 RMK AO2 T00700033
KGWW 121330Z AUTO 21010KT 10SM CLR 07/03 A2974 RMK AO2 T00650031
KGWW 121310Z AUTO 20009KT 10SM CLR 06/03 A2974 RMK AO2 T00570027
KGWW 121250Z AUTO 21007KT 10SM CLR 05/03 A2976 RMK AO2 T00490025
KGWW 121230Z AUTO 21008KT 10SM CLR 05/02 A2976 RMK AO2 T00460022
KGWW 121210Z AUTO 20010KT 10SM CLR 05/02 A2976 RMK AO2 T00470022
KGWW 121150Z AUTO 21011KT 10SM CLR 06/02 A2977 RMK AO2 T00550022 10055 20009
KGWW 121130Z AUTO 19008KT 10SM CLR 05/02 A2976 RMK AO2 T00500021
KGWW 121110Z AUTO 20008KT 10SM CLR 05/02 A2977 RMK AO2 T00490021
KGWW 121050Z AUTO 20008KT 10SM CLR 05/02 A2978 RMK AO2 T00500020
KGWW 121030Z AUTO 20008KT 10SM CLR 05/02 A2978 RMK AO2 T00490020
KGWW 121010Z AUTO 21009KT 10SM CLR 05/02 A2979 RMK AO2 T00510020
KGWW 120950Z AUTO 21010KT 10SM CLR 05/02 A2980 RMK AO2 T00530019
KGWW 120930Z AUTO 20009KT 10SM CLR 05/02 A2980 RMK AO2 T00520017
KGWW 120910Z AUTO 20008KT 10SM CLR 05/02 A2981 RMK AO2 T00490015
KGWW 120850Z AUTO 19006KT 10SM CLR 05/01 A2983 RMK AO2 T00450011
KGWW 120830Z AUTO 19006KT 10SM CLR 04/01 A2983 RMK AO2 T00420010
KGWW 120810Z AUTO 18005KT 10SM CLR 04/01 A2985 RMK AO2 T00410008
KGWW 120750Z AUTO 18004KT 10SM CLR 04/01 A2986 RMK AO2 T00400005
KGWW 120730Z AUTO 18003KT 10SM CLR 04/00 A2986 RMK AO2 T00350001
KGWW 120710Z AUTO 18003KT 10SM CLR 02/00 A2987 RMK AO2 T00230000
KGWW 120650Z AUTO 16003KT 10SM CLR 02/00 A2989 RMK AO2 T00170000
KGWW 120630Z AUTO 00000KT 10SM CLR 01/00 A2990 RMK AO2 T00131005
KGWW 120610Z AUTO 17003KT 10SM CLR 02/00 A2991 RMK AO2 T00191003
KGWW 120550Z AUTO 17003KT 10SM CLR 03/00 A2992 RMK AO2 T00281005 10049 20013 401211024
KGWW 120530Z AUTO 19004KT 10SM CLR 03/00 A2994 RMK AO2 T00291005
KGWW 120510Z AUTO 18004KT 10SM CLR 03/M01 A2994 RMK AO2 T00321006
KGWW 120450Z AUTO 19003KT 10SM CLR 02/M01 A2996 RMK AO2 T00221009
KGWW 120430Z AUTO 19003KT 10SM CLR 02/M01 A2997 RMK AO2 T00181012
KGWW 120410Z AUTO 19003KT 10SM CLR 02/M01 A2998 RMK AO2 T00241011
KGWW 120350Z AUTO 18003KT 10SM CLR 03/M01 A2999 RMK AO2 T00281014
KGWW 120330Z AUTO 18004KT 10SM CLR 04/M02 A2999 RMK AO2 T00411017
KGWW 120310Z AUTO 19004KT 10SM CLR 05/M01 A2999 RMK AO2 T00451013
KGWW 120250Z AUTO 17005KT 10SM CLR 05/M01 A2999 RMK AO2 T00451007
KGWW 120230Z AUTO 17004KT 10SM CLR 05/00 A3000 RMK AO2 T00471005
KGWW 120210Z AUTO 17003KT 10SM CLR 03/00 A3000 RMK AO2 T00300000
KGWW 120150Z AUTO 00000KT 10SM CLR 02/00 A3000 RMK AO2 T00240000
KGWW 120130Z AUTO 20003KT 10SM CLR 04/00 A3002 RMK AO2 T00350000
KGWW 120110Z AUTO 17006KT 10SM CLR 02/01 A3001 RMK AO2 T00190010
KGWW 120050Z AUTO 00000KT 10SM CLR 02/01 A3003 RMK AO2 T00150005
KGWW 120030Z AUTO 00000KT 10SM CLR 02/01 A3003 RMK AO2 T00190010
KGWW 120010Z AUTO 00000KT 10SM CLR 02/01 A3003 RMK AO2 T00240010
KGWW 112350Z AUTO 00000KT 10SM CLR 03/01 A3003 RMK AO2 T00290013 10121 20029
KGWW 112330Z AUTO 00000KT 10SM CLR 04/01 A3003 RMK AO2 T00360011
KGWW 112310Z AUTO 00000KT 10SM CLR 04/02 A3003 RMK AO2 T00410023
KGWW 112250Z AUTO 00000KT 10SM CLR 05/01 A3002 RMK AO2 T00470012
KGWW 112230Z AUTO 18003KT 10SM CLR 06/01 A3002 RMK AO2 T00560008
KGWW 112210Z AUTO 00000KT 10SM CLR 07/01 A3002 RMK AO2 T00670013
KGWW 112150Z AUTO 19003KT 10SM CLR 09/00 A3003 RMK AO2 T00890000
KGWW 112130Z AUTO 21004KT 10SM CLR 10/00 A3004 RMK AO2 T01021001
KGWW 112110Z AUTO 23005KT 10SM CLR 11/M01 A3004 RMK AO2 T01111006
KGWW 112050Z AUTO 23005KT 10SM CLR 12/M01 A3005 RMK AO2 T01161009
KGWW 112030Z AUTO 24006KT 10SM CLR 12/00 A3005 RMK AO2 T01191002
KGWW 112010Z AUTO 00000KT 10SM CLR 12/M01 A3004 RMK AO2 T01181007
KGWW 111950Z AUTO 24003KT 10SM CLR 12/M01 A3005 RMK AO2 T01201006
KGWW 111930Z AUTO 22006KT 10SM CLR 12/00 A3006 RMK AO2 T01181005
KGWW 111910Z AUTO 00000KT 10SM CLR 12/M01 A3006 RMK AO2 T01171009
KGWW 111850Z AUTO 26004KT 10SM CLR 12/00 A3007 RMK AO2 T01161005
KGWW 111830Z AUTO 28003KT 10SM CLR 11/M01 A3007 RMK AO2 T01081008
KGWW 111810Z AUTO 28006KT 10SM CLR 11/00 A3008 RMK AO2 T01091004
KGWW 111750Z AUTO 31004KT 10SM CLR 11/00 A3009 RMK AO2 T01051004 10105 21024
KGWW 111730Z AUTO 00000KT 10SM CLR 10/M01 A3010 RMK AO2 T00961006
KGWW 111710Z AUTO 27005KT 10SM CLR 10/M01 A3011 RMK AO2 T00961006
KGWW 111650Z AUTO 30003KT 10SM CLR 09/00 A3012 RMK AO2 T00861005
KGWW 111630Z AUTO 00000KT 10SM CLR 09/00 A3013 RMK AO2 T00861002
KGWW 111610Z AUTO 00000KT 10SM CLR 08/00 A3014 RMK AO2 T00771005
KGWW 111550Z AUTO 24003KT 10SM CLR 07/00 A3015 RMK AO2 T00670000
KGWW 111530Z AUTO 20004KT 10SM CLR 06/00 A3016 RMK AO2 T00581002
KGWW 111510Z AUTO 24005KT 10SM CLR 05/00 A3016 RMK AO2 T00501002
KGWW 111450Z AUTO 22006KT 10SM CLR 04/00 A3017 RMK AO2 T00361001
KGWW 111430Z AUTO 22004KT 10SM CLR 03/00 A3017 RMK AO2 T00331005
KGWW 111410Z AUTO 23005KT 10SM CLR 02/M01 A3016 RMK AO2 T00211011
KGWW 111350Z AUTO 23005KT 10SM CLR 02/M01 A3016 RMK AO2 T00151011
KGWW 111330Z AUTO 23004KT 10SM CLR 01/M01 A3016 RMK AO2 T00051013
KGWW 111310Z AUTO 21005KT 10SM CLR 00/M02 A3016 RMK AO2 T10021017
KGWW 111250Z AUTO 21004KT 10SM CLR M01/M02 A3016 RMK AO2 T10141022
KGWW 111230Z AUTO 21003KT 10SM CLR M02/M02 A3016 RMK AO2 T10181025
KGWW 111210Z AUTO 22003KT 10SM CLR M02/M03 A3016 RMK AO2 T10191026
KGWW 111150Z AUTO 22003KT 10SM CLR M01/M02 A3016 RMK AO2 T10141024 10003 21017
KGWW 111130Z AUTO 21003KT 10SM CLR M01/M02 A3015 RMK AO2 T10111022
KGWW 111110Z AUTO 20003KT 10SM CLR M01/M02 A3014 RMK AO2 T10131025
KGWW 111050Z AUTO 21004KT 10SM CLR M02/M03 A3014 RMK AO2 T10161026
KGWW 111030Z AUTO 21003KT 10SM CLR M01/M02 A3013 RMK AO2 T10061022
KGWW 111010Z AUTO 21003KT 10SM CLR M01/M03 A3013 RMK AO2 T10151028
KGWW 110950Z AUTO 23004KT 10SM CLR M01/M03 A3013 RMK AO2 T10081027
KGWW 110930Z AUTO 22005KT 10SM CLR M01/M02 A3013 RMK AO2 T10071024
KGWW 110910Z AUTO 23005KT 10SM CLR 00/M02 A3013 RMK AO2 T10051024
KGWW 110850Z AUTO 22005KT 10SM CLR 00/M02 A3014 RMK AO2 T10051023
KGWW 110830Z AUTO 22005KT 10SM CLR M01/M02 A3014 RMK AO2 T10071023
KGWW 110810Z AUTO 22005KT 10SM CLR 00/M02 A3015 RMK AO2 T10011023
KGWW 110750Z AUTO 22004KT 10SM CLR 00/M02 A3016 RMK AO2 T10031024
KGWW 110730Z AUTO 21003KT 10SM CLR 00/M02 A3015 RMK AO2 T10051025
KGWW 110710Z AUTO 20003KT 10SM CLR 00/M02 A3015 RMK AO2 T10051022
KGWW 110650Z AUTO 00000KT 10SM CLR 00/M02 A3015 RMK AO2 T10041023
KGWW 110630Z AUTO 00000KT 10SM CLR 00/M03 A3016 RMK AO2 T10031027
KGWW 110610Z AUTO 20003KT 10SM CLR 00/M02 A3016 RMK AO2 T00021024
KGWW 110550Z AUTO 21004KT 10SM CLR 00/M02 A3017 RMK AO2 T00041022 10013 21020 400661020
KGWW 110530Z AUTO 22005KT 10SM CLR 01/M02 A3017 RMK AO2 T00051022
KGWW 110510Z AUTO 20004KT 10SM CLR 01/M02 A3015 RMK AO2 T00111024
KGWW 110450Z AUTO 19005KT 10SM CLR 01/M02 A3016 RMK AO2 T00101021
KGWW 110430Z AUTO 21005KT 10SM CLR 00/M02 A3017 RMK AO2 T00031022
KGWW 110410Z AUTO 22005KT 10SM CLR 00/M02 A3017 RMK AO2 T00031023
KGWW 110350Z AUTO 20004KT 10SM CLR 00/M02 A3017 RMK AO2 T00021025